sensor_id;sensor_type;location;lat;lon;timestamp;temperature;humidity
5962;DHT22;3007;50.770;0.250;2023-04-03T00:01:46;3.80;99.90
5962;DHT22;3007;50.770;0.250;2023-04-03T00:04:13;3.80;99.90
5962;DHT22;3007;50.770;0.250;2023-04-03T00:06:40;3.80;99.90
5962;DHT22;3007;50.770;0.250;2023-04-03T00:09:09;3.80;99.90
5962;DHT22;3007;50.770;0.250;2023-04-03T00:11:36;3.80;99.90
5962;DHT22;3007;50.770;0.250;2023-04-03T00:14:02;3.90;99.90
5962;DHT22;3007;50.770;0.250;2023-04-03T00:16:29;3.90;99.90
5962;DHT22;3007;50.770;0.250;2023-04-03T00:18:56;3.90;99.90
5962;DHT22;3007;50.770;0.250;2023-04-03T00:21:23;3.90;99.90
5962;DHT22;3007;50.770;0.250;2023-04-03T00:23:50;3.90;99.90
5962;DHT22;3007;50.770;0.250;2023-04-03T00:26:18;3.90;99.90
5962;DHT22;3007;50.770;0.250;2023-04-03T00:28:46;3.90;99.90
5962;DHT22;3007;50.770;0.250;2023-04-03T00:31:14;4.00;99.90
5962;DHT22;3007;50.770;0.250;2023-04-03T00:33:42;4.00;99.90
5962;DHT22;3007;50.770;0.250;2023-04-03T00:36:09;4.00;99.90
5962;DHT22;3007;50.770;0.250;2023-04-03T00:38:36;4.10;99.90
5962;DHT22;3007;50.770;0.250;2023-04-03T00:41:04;4.10;99.90
5962;DHT22;3007;50.770;0.250;2023-04-03T00:43:32;4.20;99.90
5962;DHT22;3007;50.770;0.250;2023-04-03T00:45:59;4.20;99.90
5962;DHT22;3007;50.770;0.250;2023-04-03T00:48:29;4.30;99.90
5962;DHT22;3007;50.770;0.250;2023-04-03T00:50:57;4.40;99.90
5962;DHT22;3007;50.770;0.250;2023-04-03T00:53:27;4.50;99.90
5962;DHT22;3007;50.770;0.250;2023-04-03T00:55:56;4.50;99.90
5962;DHT22;3007;50.770;0.250;2023-04-03T00:58:30;4.60;99.90
5962;DHT22;3007;50.770;0.250;2023-04-03T01:01:05;4.60;99.90
5962;DHT22;3007;50.770;0.250;2023-04-03T01:03:35;4.70;99.90
5962;DHT22;3007;50.770;0.250;2023-04-03T01:06:03;4.70;99.90
5962;DHT22;3007;50.770;0.250;2023-04-03T01:08:30;4.70;99.90
5962;DHT22;3007;50.770;0.250;2023-04-03T01:10:57;4.70;99.90
5962;DHT22;3007;50.770;0.250;2023-04-03T01:13:26;4.80;99.90
5962;DHT22;3007;50.770;0.250;2023-04-03T01:15:53;4.80;99.90
5962;DHT22;3007;50.770;0.250;2023-04-03T01:18:24;4.80;99.90
5962;DHT22;3007;50.770;0.250;2023-04-03T01:21:17;4.80;99.90
5962;DHT22;3007;50.770;0.250;2023-04-03T01:23:58;4.80;99.90
5962;DHT22;3007;50.770;0.250;2023-04-03T01:26:29;4.80;99.90
5962;DHT22;3007;50.770;0.250;2023-04-03T01:28:59;4.90;99.90
5962;DHT22;3007;50.770;0.250;2023-04-03T01:31:27;4.80;99.90
5962;DHT22;3007;50.770;0.250;2023-04-03T01:33:57;4.80;99.90
5962;DHT22;3007;50.770;0.250;2023-04-03T01:36:27;4.80;99.90
5962;DHT22;3007;50.770;0.250;2023-04-03T01:38:56;4.80;99.90
5962;DHT22;3007;50.770;0.250;2023-04-03T01:41:26;4.80;99.90
5962;DHT22;3007;50.770;0.250;2023-04-03T01:43:53;4.70;99.90
5962;DHT22;3007;50.770;0.250;2023-04-03T01:46:20;4.70;99.90
5962;DHT22;3007;50.770;0.250;2023-04-03T01:48:47;4.70;99.90
5962;DHT22;3007;50.770;0.250;2023-04-03T01:51:16;4.60;99.90
5962;DHT22;3007;50.770;0.250;2023-04-03T01:53:43;4.60;99.90
5962;DHT22;3007;50.770;0.250;2023-04-03T01:56:10;4.50;99.90
5962;DHT22;3007;50.770;0.250;2023-04-03T01:58:37;4.50;99.90
5962;DHT22;3007;50.770;0.250;2023-04-03T02:01:04;4.50;99.90
5962;DHT22;3007;50.770;0.250;2023-04-03T02:03:31;4.50;99.90
5962;DHT22;3007;50.770;0.250;2023-04-03T02:05:58;4.50;99.90
5962;DHT22;3007;50.770;0.250;2023-04-03T02:08:26;4.50;99.90
5962;DHT22;3007;50.770;0.250;2023-04-03T02:10:53;4.50;99.90
5962;DHT22;3007;50.770;0.250;2023-04-03T02:13:20;4.50;99.90
5962;DHT22;3007;50.770;0.250;2023-04-03T02:15:47;4.60;99.90
5962;DHT22;3007;50.770;0.250;2023-04-03T02:18:15;4.60;99.90
5962;DHT22;3007;50.770;0.250;2023-04-03T02:20:42;4.60;99.90
5962;DHT22;3007;50.770;0.250;2023-04-03T02:23:09;4.60;99.90
5962;DHT22;3007;50.770;0.250;2023-04-03T02:25:37;4.60;99.90
5962;DHT22;3007;50.770;0.250;2023-04-03T02:28:04;4.60;99.90
5962;DHT22;3007;50.770;0.250;2023-04-03T02:30:31;4.60;99.90
5962;DHT22;3007;50.770;0.250;2023-04-03T02:32:58;4.60;99.90
5962;DHT22;3007;50.770;0.250;2023-04-03T02:35:25;4.60;99.90
5962;DHT22;3007;50.770;0.250;2023-04-03T02:37:52;4.50;99.90
5962;DHT22;3007;50.770;0.250;2023-04-03T02:40:19;4.50;99.90
5962;DHT22;3007;50.770;0.250;2023-04-03T02:42:47;4.50;99.90
5962;DHT22;3007;50.770;0.250;2023-04-03T02:45:14;4.50;99.90
5962;DHT22;3007;50.770;0.250;2023-04-03T02:47:41;4.50;99.90
5962;DHT22;3007;50.770;0.250;2023-04-03T02:50:08;4.50;99.90
5962;DHT22;3007;50.770;0.250;2023-04-03T02:52:35;4.50;99.90
5962;DHT22;3007;50.770;0.250;2023-04-03T02:55:03;4.50;99.90
5962;DHT22;3007;50.770;0.250;2023-04-03T02:57:30;4.50;99.90
5962;DHT22;3007;50.770;0.250;2023-04-03T02:59:59;4.40;99.90
5962;DHT22;3007;50.770;0.250;2023-04-03T03:02:25;4.40;99.90
5962;DHT22;3007;50.770;0.250;2023-04-03T03:04:52;4.40;99.90
5962;DHT22;3007;50.770;0.250;2023-04-03T03:07:19;4.30;99.90
5962;DHT22;3007;50.770;0.250;2023-04-03T03:09:46;4.30;99.90
5962;DHT22;3007;50.770;0.250;2023-04-03T03:12:13;4.20;99.90
5962;DHT22;3007;50.770;0.250;2023-04-03T03:14:40;4.20;99.90
5962;DHT22;3007;50.770;0.250;2023-04-03T03:17:09;4.10;99.90
5962;DHT22;3007;50.770;0.250;2023-04-03T03:19:36;4.00;99.90
5962;DHT22;3007;50.770;0.250;2023-04-03T03:22:03;4.00;99.90
5962;DHT22;3007;50.770;0.250;2023-04-03T03:24:30;4.00;99.90
5962;DHT22;3007;50.770;0.250;2023-04-03T03:26:58;4.00;99.90
5962;DHT22;3007;50.770;0.250;2023-04-03T03:29:25;4.00;99.90
5962;DHT22;3007;50.770;0.250;2023-04-03T03:31:52;4.00;99.90
5962;DHT22;3007;50.770;0.250;2023-04-03T03:34:20;4.00;99.90
5962;DHT22;3007;50.770;0.250;2023-04-03T03:36:47;4.10;99.90
5962;DHT22;3007;50.770;0.250;2023-04-03T03:39:14;4.10;99.90
5962;DHT22;3007;50.770;0.250;2023-04-03T03:41:41;4.10;99.90
5962;DHT22;3007;50.770;0.250;2023-04-03T03:44:08;4.00;99.90
5962;DHT22;3007;50.770;0.250;2023-04-03T03:46:35;3.90;99.90
5962;DHT22;3007;50.770;0.250;2023-04-03T03:49:02;3.90;99.90
5962;DHT22;3007;50.770;0.250;2023-04-03T03:51:30;3.80;99.90
5962;DHT22;3007;50.770;0.250;2023-04-03T03:53:57;3.80;99.90
5962;DHT22;3007;50.770;0.250;2023-04-03T03:56:24;3.70;99.90
5962;DHT22;3007;50.770;0.250;2023-04-03T03:58:52;3.70;99.90
5962;DHT22;3007;50.770;0.250;2023-04-03T04:01:19;3.70;99.90
5962;DHT22;3007;50.770;0.250;2023-04-03T04:03:47;3.80;99.90
5962;DHT22;3007;50.770;0.250;2023-04-03T04:06:14;3.80;99.90
5962;DHT22;3007;50.770;0.250;2023-04-03T04:08:43;3.80;99.90
5962;DHT22;3007;50.770;0.250;2023-04-03T04:11:10;3.90;99.90
5962;DHT22;3007;50.770;0.250;2023-04-03T04:13:37;3.90;99.90
5962;DHT22;3007;50.770;0.250;2023-04-03T04:16:04;3.90;99.90
5962;DHT22;3007;50.770;0.250;2023-04-03T04:18:31;4.00;99.90
5962;DHT22;3007;50.770;0.250;2023-04-03T04:20:58;4.10;99.90
5962;DHT22;3007;50.770;0.250;2023-04-03T04:23:25;4.20;99.90
5962;DHT22;3007;50.770;0.250;2023-04-03T04:25:53;4.20;99.90
5962;DHT22;3007;50.770;0.250;2023-04-03T04:28:20;4.20;99.90
5962;DHT22;3007;50.770;0.250;2023-04-03T04:30:47;4.30;99.90
5962;DHT22;3007;50.770;0.250;2023-04-03T04:33:14;4.30;99.90
5962;DHT22;3007;50.770;0.250;2023-04-03T04:35:42;4.30;99.90
5962;DHT22;3007;50.770;0.250;2023-04-03T04:38:09;4.30;99.90
5962;DHT22;3007;50.770;0.250;2023-04-03T04:40:36;4.30;99.90
5962;DHT22;3007;50.770;0.250;2023-04-03T04:43:05;4.40;99.90
5962;DHT22;3007;50.770;0.250;2023-04-03T04:45:31;4.40;99.90
5962;DHT22;3007;50.770;0.250;2023-04-03T04:47:58;4.40;99.90
5962;DHT22;3007;50.770;0.250;2023-04-03T04:50:25;4.40;99.90
5962;DHT22;3007;50.770;0.250;2023-04-03T04:52:52;4.40;99.90
5962;DHT22;3007;50.770;0.250;2023-04-03T04:55:19;4.50;99.90
5962;DHT22;3007;50.770;0.250;2023-04-03T04:57:46;4.50;99.90
5962;DHT22;3007;50.770;0.250;2023-04-03T05:00:15;4.50;99.90
5962;DHT22;3007;50.770;0.250;2023-04-03T05:02:43;4.50;99.90
5962;DHT22;3007;50.770;0.250;2023-04-03T05:05:10;4.40;99.90
5962;DHT22;3007;50.770;0.250;2023-04-03T05:07:36;4.40;99.90
5962;DHT22;3007;50.770;0.250;2023-04-03T05:10:04;4.40;99.90
5962;DHT22;3007;50.770;0.250;2023-04-03T05:12:32;4.40;99.90
5962;DHT22;3007;50.770;0.250;2023-04-03T05:14:58;4.40;99.90
5962;DHT22;3007;50.770;0.250;2023-04-03T05:17:27;4.30;99.90
5962;DHT22;3007;50.770;0.250;2023-04-03T05:19:54;4.30;99.90
5962;DHT22;3007;50.770;0.250;2023-04-03T05:22:20;4.30;99.90
5962;DHT22;3007;50.770;0.250;2023-04-03T05:24:47;4.30;99.90
5962;DHT22;3007;50.770;0.250;2023-04-03T05:27:14;4.30;99.90
5962;DHT22;3007;50.770;0.250;2023-04-03T05:29:42;4.30;99.90
5962;DHT22;3007;50.770;0.250;2023-04-03T05:32:09;4.30;99.90
5962;DHT22;3007;50.770;0.250;2023-04-03T05:34:37;4.30;99.90
5962;DHT22;3007;50.770;0.250;2023-04-03T05:37:04;4.30;99.90
5962;DHT22;3007;50.770;0.250;2023-04-03T05:39:31;4.30;99.90
5962;DHT22;3007;50.770;0.250;2023-04-03T05:41:59;4.30;99.90
5962;DHT22;3007;50.770;0.250;2023-04-03T05:44:26;4.30;99.90
5962;DHT22;3007;50.770;0.250;2023-04-03T05:46:53;4.40;99.90
5962;DHT22;3007;50.770;0.250;2023-04-03T05:49:20;4.50;99.90
5962;DHT22;3007;50.770;0.250;2023-04-03T05:51:48;4.60;99.90
5962;DHT22;3007;50.770;0.250;2023-04-03T05:54:18;4.70;99.90
5962;DHT22;3007;50.770;0.250;2023-04-03T05:56:48;4.80;99.90
5962;DHT22;3007;50.770;0.250;2023-04-03T05:59:15;4.90;99.90
5962;DHT22;3007;50.770;0.250;2023-04-03T06:01:42;5.10;99.90
5962;DHT22;3007;50.770;0.250;2023-04-03T06:04:09;5.20;99.90
5962;DHT22;3007;50.770;0.250;2023-04-03T06:06:44;5.20;99.90
5962;DHT22;3007;50.770;0.250;2023-04-03T06:09:12;5.20;99.90
5962;DHT22;3007;50.770;0.250;2023-04-03T06:11:39;5.20;99.90
5962;DHT22;3007;50.770;0.250;2023-04-03T06:14:07;5.20;99.90
5962;DHT22;3007;50.770;0.250;2023-04-03T06:16:34;5.20;99.90
5962;DHT22;3007;50.770;0.250;2023-04-03T06:19:01;5.30;99.90
5962;DHT22;3007;50.770;0.250;2023-04-03T06:21:30;5.30;99.90
5962;DHT22;3007;50.770;0.250;2023-04-03T06:23:57;5.50;99.90
5962;DHT22;3007;50.770;0.250;2023-04-03T06:26:25;5.60;99.90
5962;DHT22;3007;50.770;0.250;2023-04-03T06:28:52;5.90;99.90
5962;DHT22;3007;50.770;0.250;2023-04-03T06:31:19;6.20;99.90
5962;DHT22;3007;50.770;0.250;2023-04-03T06:33:46;6.40;99.90
5962;DHT22;3007;50.770;0.250;2023-04-03T06:36:13;6.70;99.90
5962;DHT22;3007;50.770;0.250;2023-04-03T06:38:45;7.10;99.90
5962;DHT22;3007;50.770;0.250;2023-04-03T06:41:12;7.50;99.90
5962;DHT22;3007;50.770;0.250;2023-04-03T06:43:40;7.70;99.90
5962;DHT22;3007;50.770;0.250;2023-04-03T06:46:13;7.90;99.90
5962;DHT22;3007;50.770;0.250;2023-04-03T06:48:40;8.20;99.90
5962;DHT22;3007;50.770;0.250;2023-04-03T06:51:11;8.10;99.90
5962;DHT22;3007;50.770;0.250;2023-04-03T06:53:40;7.90;99.90
5962;DHT22;3007;50.770;0.250;2023-04-03T06:56:07;8.30;99.90
5962;DHT22;3007;50.770;0.250;2023-04-03T06:58:35;8.60;99.90
5962;DHT22;3007;50.770;0.250;2023-04-03T07:01:03;8.40;99.90
5962;DHT22;3007;50.770;0.250;2023-04-03T07:03:30;8.10;99.90
5962;DHT22;3007;50.770;0.250;2023-04-03T07:05:57;8.10;99.90
5962;DHT22;3007;50.770;0.250;2023-04-03T07:08:24;7.90;99.90
5962;DHT22;3007;50.770;0.250;2023-04-03T07:10:51;7.90;99.90
5962;DHT22;3007;50.770;0.250;2023-04-03T07:13:18;8.30;99.90
5962;DHT22;3007;50.770;0.250;2023-04-03T07:15:45;8.90;99.90
5962;DHT22;3007;50.770;0.250;2023-04-03T07:18:14;9.30;99.90
5962;DHT22;3007;50.770;0.250;2023-04-03T07:20:42;9.50;99.90
5962;DHT22;3007;50.770;0.250;2023-04-03T07:23:09;9.80;99.90
5962;DHT22;3007;50.770;0.250;2023-04-03T07:25:37;9.80;99.90
5962;DHT22;3007;50.770;0.250;2023-04-03T07:28:08;10.20;99.90
5962;DHT22;3007;50.770;0.250;2023-04-03T07:30:36;10.20;99.90
5962;DHT22;3007;50.770;0.250;2023-04-03T07:33:08;10.10;99.90
5962;DHT22;3007;50.770;0.250;2023-04-03T07:35:38;10.00;99.90
5962;DHT22;3007;50.770;0.250;2023-04-03T07:38:05;10.20;99.90
5962;DHT22;3007;50.770;0.250;2023-04-03T07:43:00;10.90;99.90
5962;DHT22;3007;50.770;0.250;2023-04-03T07:45:28;11.20;99.90
5962;DHT22;3007;50.770;0.250;2023-04-03T07:47:55;11.40;99.90
5962;DHT22;3007;50.770;0.250;2023-04-03T07:50:22;11.20;99.90
5962;DHT22;3007;50.770;0.250;2023-04-03T07:52:50;11.00;99.90
5962;DHT22;3007;50.770;0.250;2023-04-03T07:55:20;10.80;99.90
5962;DHT22;3007;50.770;0.250;2023-04-03T07:57:47;10.70;99.90
5962;DHT22;3007;50.770;0.250;2023-04-03T08:00:14;10.70;99.90
5962;DHT22;3007;50.770;0.250;2023-04-03T08:02:43;10.90;99.90
5962;DHT22;3007;50.770;0.250;2023-04-03T08:05:16;10.90;99.90
5962;DHT22;3007;50.770;0.250;2023-04-03T08:07:42;11.10;99.90
5962;DHT22;3007;50.770;0.250;2023-04-03T08:10:11;11.20;99.90
5962;DHT22;3007;50.770;0.250;2023-04-03T08:12:38;11.30;99.90
5962;DHT22;3007;50.770;0.250;2023-04-03T08:15:06;11.50;99.90
5962;DHT22;3007;50.770;0.250;2023-04-03T08:17:33;11.60;99.90
5962;DHT22;3007;50.770;0.250;2023-04-03T08:20:01;11.80;99.90
5962;DHT22;3007;50.770;0.250;2023-04-03T08:22:28;12.10;99.90
5962;DHT22;3007;50.770;0.250;2023-04-03T08:24:55;12.10;99.90
5962;DHT22;3007;50.770;0.250;2023-04-03T08:27:23;12.20;99.90
5962;DHT22;3007;50.770;0.250;2023-04-03T08:29:50;12.30;99.90
5962;DHT22;3007;50.770;0.250;2023-04-03T08:32:17;12.30;99.90
5962;DHT22;3007;50.770;0.250;2023-04-03T08:34:46;12.30;99.90
5962;DHT22;3007;50.770;0.250;2023-04-03T08:37:13;12.00;99.90
5962;DHT22;3007;50.770;0.250;2023-04-03T08:39:41;11.90;99.90
5962;DHT22;3007;50.770;0.250;2023-04-03T08:42:15;11.70;99.90
5962;DHT22;3007;50.770;0.250;2023-04-03T08:44:47;11.50;99.90
5962;DHT22;3007;50.770;0.250;2023-04-03T08:47:23;11.50;99.90
5962;DHT22;3007;50.770;0.250;2023-04-03T08:49:53;11.40;99.90
5962;DHT22;3007;50.770;0.250;2023-04-03T08:52:30;11.40;99.90
5962;DHT22;3007;50.770;0.250;2023-04-03T08:55:00;11.40;99.90
5962;DHT22;3007;50.770;0.250;2023-04-03T08:57:31;11.30;99.90
5962;DHT22;3007;50.770;0.250;2023-04-03T09:00:04;11.20;99.90
5962;DHT22;3007;50.770;0.250;2023-04-03T09:02:34;11.20;99.90
5962;DHT22;3007;50.770;0.250;2023-04-03T09:05:12;11.00;99.90
5962;DHT22;3007;50.770;0.250;2023-04-03T09:07:43;10.90;99.90
5962;DHT22;3007;50.770;0.250;2023-04-03T09:10:13;10.90;99.90
5962;DHT22;3007;50.770;0.250;2023-04-03T09:12:43;10.90;99.90
5962;DHT22;3007;50.770;0.250;2023-04-03T09:15:19;10.80;99.90
5962;DHT22;3007;50.770;0.250;2023-04-03T09:17:57;10.70;99.90
5962;DHT22;3007;50.770;0.250;2023-04-03T09:20:35;10.60;99.90
5962;DHT22;3007;50.770;0.250;2023-04-03T09:23:10;10.30;99.90
5962;DHT22;3007;50.770;0.250;2023-04-03T09:25:40;10.10;99.90
5962;DHT22;3007;50.770;0.250;2023-04-03T09:28:07;10.10;99.90
5962;DHT22;3007;50.770;0.250;2023-04-03T09:30:37;9.90;99.90
5962;DHT22;3007;50.770;0.250;2023-04-03T09:33:04;9.70;99.90
5962;DHT22;3007;50.770;0.250;2023-04-03T09:35:34;9.60;99.90
5962;DHT22;3007;50.770;0.250;2023-04-03T09:38:14;9.40;99.90
5962;DHT22;3007;50.770;0.250;2023-04-03T09:40:42;9.40;99.90
5962;DHT22;3007;50.770;0.250;2023-04-03T09:43:27;9.30;99.90
5962;DHT22;3007;50.770;0.250;2023-04-03T09:45:56;9.20;99.90
5962;DHT22;3007;50.770;0.250;2023-04-03T09:48:24;9.20;99.90
5962;DHT22;3007;50.770;0.250;2023-04-03T09:50:56;9.10;99.90
5962;DHT22;3007;50.770;0.250;2023-04-03T09:53:30;9.00;99.90
5962;DHT22;3007;50.770;0.250;2023-04-03T09:55:59;8.90;99.90
5962;DHT22;3007;50.770;0.250;2023-04-03T09:58:28;8.90;99.90
5962;DHT22;3007;50.770;0.250;2023-04-03T10:00:59;8.90;99.90
5962;DHT22;3007;50.770;0.250;2023-04-03T10:03:29;8.90;99.90
5962;DHT22;3007;50.770;0.250;2023-04-03T10:05:56;8.90;99.90
5962;DHT22;3007;50.770;0.250;2023-04-03T10:08:27;8.80;99.90
5962;DHT22;3007;50.770;0.250;2023-04-03T10:11:13;8.80;99.90
5962;DHT22;3007;50.770;0.250;2023-04-03T10:13:55;8.80;99.90
5962;DHT22;3007;50.770;0.250;2023-04-03T10:16:29;8.80;99.90
5962;DHT22;3007;50.770;0.250;2023-04-03T10:21:57;8.80;99.90
5962;DHT22;3007;50.770;0.250;2023-04-03T10:24:30;8.80;99.90
5962;DHT22;3007;50.770;0.250;2023-04-03T10:27:05;8.80;99.90
5962;DHT22;3007;50.770;0.250;2023-04-03T10:29:40;8.70;99.90
5962;DHT22;3007;50.770;0.250;2023-04-03T10:32:42;8.70;99.90
5962;DHT22;3007;50.770;0.250;2023-04-03T10:35:18;8.70;99.90
5962;DHT22;3007;50.770;0.250;2023-04-03T10:37:58;8.70;99.90
5962;DHT22;3007;50.770;0.250;2023-04-03T10:40:33;8.70;99.90
5962;DHT22;3007;50.770;0.250;2023-04-03T10:43:07;8.70;99.90
5962;DHT22;3007;50.770;0.250;2023-04-03T10:45:51;8.80;99.90
5962;DHT22;3007;50.770;0.250;2023-04-03T10:48:31;8.80;99.90
5962;DHT22;3007;50.770;0.250;2023-04-03T10:51:07;8.80;99.90
5962;DHT22;3007;50.770;0.250;2023-04-03T10:53:39;8.80;99.90
5962;DHT22;3007;50.770;0.250;2023-04-03T10:56:15;8.80;99.90
5962;DHT22;3007;50.770;0.250;2023-04-03T10:58:48;8.80;99.90
5962;DHT22;3007;50.770;0.250;2023-04-03T11:01:19;8.80;99.90
5962;DHT22;3007;50.770;0.250;2023-04-03T11:03:51;8.70;99.90
5962;DHT22;3007;50.770;0.250;2023-04-03T11:06:25;8.70;99.90
5962;DHT22;3007;50.770;0.250;2023-04-03T11:08:55;8.70;99.90
5962;DHT22;3007;50.770;0.250;2023-04-03T11:11:26;8.70;99.90
5962;DHT22;3007;50.770;0.250;2023-04-03T11:13:57;8.60;99.90
5962;DHT22;3007;50.770;0.250;2023-04-03T11:16:30;8.60;99.90
5962;DHT22;3007;50.770;0.250;2023-04-03T11:19:02;8.60;99.90
5962;DHT22;3007;50.770;0.250;2023-04-03T11:21:33;8.60;99.90
5962;DHT22;3007;50.770;0.250;2023-04-03T11:24:05;8.70;99.90
5962;DHT22;3007;50.770;0.250;2023-04-03T11:26:38;8.70;99.90
5962;DHT22;3007;50.770;0.250;2023-04-03T11:29:09;8.70;99.90
5962;DHT22;3007;50.770;0.250;2023-04-03T11:31:47;8.60;99.90
5962;DHT22;3007;50.770;0.250;2023-04-03T11:34:29;8.60;99.90
5962;DHT22;3007;50.770;0.250;2023-04-03T11:37:05;8.60;99.90
5962;DHT22;3007;50.770;0.250;2023-04-03T11:39:38;8.60;99.90
5962;DHT22;3007;50.770;0.250;2023-04-03T11:42:14;8.60;99.90
5962;DHT22;3007;50.770;0.250;2023-04-03T11:44:42;8.70;99.90
5962;DHT22;3007;50.770;0.250;2023-04-03T11:47:10;8.70;99.90
5962;DHT22;3007;50.770;0.250;2023-04-03T11:50:01;8.60;99.90
5962;DHT22;3007;50.770;0.250;2023-04-03T11:55:57;8.70;99.90
5962;DHT22;3007;50.770;0.250;2023-04-03T11:58:26;8.70;99.90
5962;DHT22;3007;50.770;0.250;2023-04-03T12:00:59;8.70;99.90
5962;DHT22;3007;50.770;0.250;2023-04-03T12:09:58;8.80;99.90
5962;DHT22;3007;50.770;0.250;2023-04-03T12:12:32;8.80;99.90
5962;DHT22;3007;50.770;0.250;2023-04-03T12:15:22;8.80;99.90
5962;DHT22;3007;50.770;0.250;2023-04-03T12:17:51;8.80;99.90
5962;DHT22;3007;50.770;0.250;2023-04-03T12:20:55;8.80;99.90
5962;DHT22;3007;50.770;0.250;2023-04-03T12:23:27;8.70;99.90
5962;DHT22;3007;50.770;0.250;2023-04-03T12:26:05;8.70;99.90
5962;DHT22;3007;50.770;0.250;2023-04-03T12:28:39;8.80;99.90
5962;DHT22;3007;50.770;0.250;2023-04-03T12:31:08;8.80;99.90
5962;DHT22;3007;50.770;0.250;2023-04-03T12:36:40;8.80;99.90
5962;DHT22;3007;50.770;0.250;2023-04-03T12:39:27;8.90;99.90
5962;DHT22;3007;50.770;0.250;2023-04-03T12:42:10;8.90;99.90
5962;DHT22;3007;50.770;0.250;2023-04-03T12:44:50;8.80;99.90
5962;DHT22;3007;50.770;0.250;2023-04-03T12:47:24;8.80;99.90
5962;DHT22;3007;50.770;0.250;2023-04-03T12:49:53;8.80;99.90
5962;DHT22;3007;50.770;0.250;2023-04-03T12:52:33;8.70;99.90
5962;DHT22;3007;50.770;0.250;2023-04-03T12:55:03;8.70;99.90
5962;DHT22;3007;50.770;0.250;2023-04-03T12:57:36;8.70;99.90
5962;DHT22;3007;50.770;0.250;2023-04-03T13:00:25;8.70;99.90
5962;DHT22;3007;50.770;0.250;2023-04-03T13:02:53;8.70;99.90
5962;DHT22;3007;50.770;0.250;2023-04-03T13:05:21;8.70;99.90
5962;DHT22;3007;50.770;0.250;2023-04-03T13:07:50;8.90;99.90
5962;DHT22;3007;50.770;0.250;2023-04-03T13:10:19;8.90;99.90
5962;DHT22;3007;50.770;0.250;2023-04-03T13:12:50;8.80;99.90
5962;DHT22;3007;50.770;0.250;2023-04-03T13:15:20;8.90;99.90
5962;DHT22;3007;50.770;0.250;2023-04-03T13:17:48;8.90;99.90
5962;DHT22;3007;50.770;0.250;2023-04-03T13:20:20;8.90;99.90
5962;DHT22;3007;50.770;0.250;2023-04-03T13:22:56;9.00;99.90
5962;DHT22;3007;50.770;0.250;2023-04-03T13:25:26;9.00;99.90
5962;DHT22;3007;50.770;0.250;2023-04-03T13:27:55;9.00;99.90
5962;DHT22;3007;50.770;0.250;2023-04-03T13:30:29;9.00;99.90
5962;DHT22;3007;50.770;0.250;2023-04-03T13:32:58;9.00;99.90
5962;DHT22;3007;50.770;0.250;2023-04-03T13:35:29;9.00;99.90
5962;DHT22;3007;50.770;0.250;2023-04-03T13:37:58;9.00;99.90
5962;DHT22;3007;50.770;0.250;2023-04-03T13:40:25;8.90;99.90
5962;DHT22;3007;50.770;0.250;2023-04-03T13:43:06;9.00;99.90
5962;DHT22;3007;50.770;0.250;2023-04-03T13:45:34;9.00;99.90
5962;DHT22;3007;50.770;0.250;2023-04-03T13:48:10;9.00;99.90
5962;DHT22;3007;50.770;0.250;2023-04-03T13:50:54;8.90;99.90
5962;DHT22;3007;50.770;0.250;2023-04-03T13:53:21;8.90;99.90
5962;DHT22;3007;50.770;0.250;2023-04-03T13:55:56;9.00;99.90
5962;DHT22;3007;50.770;0.250;2023-04-03T13:58:25;9.00;99.90
5962;DHT22;3007;50.770;0.250;2023-04-03T14:00:55;9.00;99.90
5962;DHT22;3007;50.770;0.250;2023-04-03T14:03:26;9.00;99.90
5962;DHT22;3007;50.770;0.250;2023-04-03T14:05:55;9.00;99.90
5962;DHT22;3007;50.770;0.250;2023-04-03T14:08:22;9.00;99.90
5962;DHT22;3007;50.770;0.250;2023-04-03T14:10:50;9.00;99.90
5962;DHT22;3007;50.770;0.250;2023-04-03T14:13:19;9.00;99.90
5962;DHT22;3007;50.770;0.250;2023-04-03T14:15:49;9.00;99.90
5962;DHT22;3007;50.770;0.250;2023-04-03T14:18:18;9.00;99.90
5962;DHT22;3007;50.770;0.250;2023-04-03T14:20:45;9.00;99.90
5962;DHT22;3007;50.770;0.250;2023-04-03T14:23:14;9.00;99.90
5962;DHT22;3007;50.770;0.250;2023-04-03T14:25:42;9.00;99.90
5962;DHT22;3007;50.770;0.250;2023-04-03T14:28:15;9.00;99.90
5962;DHT22;3007;50.770;0.250;2023-04-03T14:30:43;9.00;99.90
5962;DHT22;3007;50.770;0.250;2023-04-03T14:33:14;9.10;99.90
5962;DHT22;3007;50.770;0.250;2023-04-03T14:35:41;9.00;99.90
5962;DHT22;3007;50.770;0.250;2023-04-03T14:38:21;9.00;99.90
5962;DHT22;3007;50.770;0.250;2023-04-03T14:40:49;9.00;99.90
5962;DHT22;3007;50.770;0.250;2023-04-03T14:43:16;9.00;99.90
5962;DHT22;3007;50.770;0.250;2023-04-03T14:45:43;9.00;99.90
5962;DHT22;3007;50.770;0.250;2023-04-03T14:48:17;9.10;99.90
5962;DHT22;3007;50.770;0.250;2023-04-03T14:50:45;9.10;99.90
5962;DHT22;3007;50.770;0.250;2023-04-03T14:53:12;9.10;99.90
5962;DHT22;3007;50.770;0.250;2023-04-03T14:55:40;9.10;99.90
5962;DHT22;3007;50.770;0.250;2023-04-03T14:58:11;9.10;99.90
5962;DHT22;3007;50.770;0.250;2023-04-03T15:00:38;9.10;99.90
5962;DHT22;3007;50.770;0.250;2023-04-03T15:03:05;9.10;99.90
5962;DHT22;3007;50.770;0.250;2023-04-03T15:05:35;9.10;99.90
5962;DHT22;3007;50.770;0.250;2023-04-03T15:08:02;9.10;99.90
5962;DHT22;3007;50.770;0.250;2023-04-03T15:10:31;9.10;99.90
5962;DHT22;3007;50.770;0.250;2023-04-03T15:12:58;9.10;99.90
5962;DHT22;3007;50.770;0.250;2023-04-03T15:15:28;9.10;99.90
5962;DHT22;3007;50.770;0.250;2023-04-03T15:17:56;9.00;99.90
5962;DHT22;3007;50.770;0.250;2023-04-03T15:20:25;9.10;99.90
5962;DHT22;3007;50.770;0.250;2023-04-03T15:22:54;9.00;99.90
5962;DHT22;3007;50.770;0.250;2023-04-03T15:25:22;9.00;99.90
5962;DHT22;3007;50.770;0.250;2023-04-03T15:27:49;9.00;99.90
5962;DHT22;3007;50.770;0.250;2023-04-03T15:30:18;9.00;99.90
5962;DHT22;3007;50.770;0.250;2023-04-03T15:32:45;9.00;99.90
5962;DHT22;3007;50.770;0.250;2023-04-03T15:35:12;9.00;99.90
5962;DHT22;3007;50.770;0.250;2023-04-03T15:37:39;9.00;99.90
5962;DHT22;3007;50.770;0.250;2023-04-03T15:40:08;9.00;99.90
5962;DHT22;3007;50.770;0.250;2023-04-03T15:42:35;9.00;99.90
5962;DHT22;3007;50.770;0.250;2023-04-03T15:45:03;9.00;99.90
5962;DHT22;3007;50.770;0.250;2023-04-03T15:47:30;9.00;99.90
5962;DHT22;3007;50.770;0.250;2023-04-03T15:49:57;9.00;99.90
5962;DHT22;3007;50.770;0.250;2023-04-03T15:52:24;9.00;99.90
5962;DHT22;3007;50.770;0.250;2023-04-03T15:54:51;9.00;99.90
5962;DHT22;3007;50.770;0.250;2023-04-03T15:57:19;9.00;99.90
5962;DHT22;3007;50.770;0.250;2023-04-03T15:59:51;9.00;99.90
5962;DHT22;3007;50.770;0.250;2023-04-03T16:02:18;9.00;99.90
5962;DHT22;3007;50.770;0.250;2023-04-03T16:04:45;9.00;99.90
5962;DHT22;3007;50.770;0.250;2023-04-03T16:07:12;9.00;99.90
5962;DHT22;3007;50.770;0.250;2023-04-03T16:09:39;8.90;99.90
5962;DHT22;3007;50.770;0.250;2023-04-03T16:12:06;8.90;99.90
5962;DHT22;3007;50.770;0.250;2023-04-03T16:14:37;8.90;99.90
5962;DHT22;3007;50.770;0.250;2023-04-03T16:17:04;8.80;99.90
5962;DHT22;3007;50.770;0.250;2023-04-03T16:19:31;8.90;99.90
5962;DHT22;3007;50.770;0.250;2023-04-03T16:21:58;8.90;99.90
5962;DHT22;3007;50.770;0.250;2023-04-03T16:24:25;8.90;99.90
5962;DHT22;3007;50.770;0.250;2023-04-03T16:26:52;8.80;99.90
5962;DHT22;3007;50.770;0.250;2023-04-03T16:29:19;8.80;99.90
5962;DHT22;3007;50.770;0.250;2023-04-03T16:31:48;8.80;99.90
5962;DHT22;3007;50.770;0.250;2023-04-03T16:34:15;8.80;99.90
5962;DHT22;3007;50.770;0.250;2023-04-03T16:36:42;8.70;99.90
5962;DHT22;3007;50.770;0.250;2023-04-03T16:39:09;8.70;99.90
5962;DHT22;3007;50.770;0.250;2023-04-03T16:41:37;8.60;99.90
5962;DHT22;3007;50.770;0.250;2023-04-03T16:44:04;8.60;99.90
5962;DHT22;3007;50.770;0.250;2023-04-03T16:46:32;8.60;99.90
5962;DHT22;3007;50.770;0.250;2023-04-03T16:49:01;8.60;99.90
5962;DHT22;3007;50.770;0.250;2023-04-03T16:51:28;8.50;99.90